createdAt,value
2018-07-11T00:02:13.159Z,88.28
2018-07-11T00:04:42.378Z,88.41
2018-07-11T00:07:11.803Z,88.45
2018-07-11T00:09:41.119Z,88.31
2018-07-11T00:12:10.351Z,88.62
2018-07-11T00:14:39.559Z,88.96
2018-07-11T00:17:14.722Z,89.78
2018-07-11T00:19:44.414Z,89.94
2018-07-11T00:22:13.974Z,90.23
2018-07-11T00:24:43.192Z,89.62
2018-07-11T00:27:12.390Z,89.16
2018-07-11T00:29:41.607Z,89.16
2018-07-11T00:32:10.789Z,88.94
2018-07-11T00:34:40.830Z,89.64
2018-07-11T00:37:10.097Z,90.34
2018-07-11T00:39:39.567Z,88.80
2018-07-11T00:42:08.798Z,88.92
2018-07-11T00:44:38.051Z,88.26
2018-07-11T00:47:07.288Z,88.86
2018-07-11T00:49:36.558Z,89.55
2018-07-11T00:52:05.775Z,90.06
2018-07-11T00:54:35.032Z,90.06
2018-07-11T00:57:04.244Z,90.91
2018-07-11T00:59:33.500Z,90.81
2018-07-11T01:02:05.469Z,90.81
2018-07-11T01:04:34.868Z,90.52
2018-07-11T01:07:05.707Z,89.74
2018-07-11T01:09:46.906Z,89.48
2018-07-11T01:12:16.143Z,89.32
2018-07-11T01:14:46.053Z,89.27
2018-07-11T01:17:20.587Z,88.82
2018-07-11T01:19:49.879Z,88.70
2018-07-11T01:22:19.084Z,89.04
2018-07-11T01:24:48.282Z,89.12
2018-07-11T01:27:17.518Z,89.72
2018-07-11T01:29:46.771Z,89.54
2018-07-11T01:32:15.986Z,89.79
2018-07-11T01:34:45.223Z,90.14
2018-07-11T01:37:14.427Z,89.56
2018-07-11T01:39:44.395Z,89.72
2018-07-11T01:42:13.636Z,89.70
2018-07-11T01:44:43.267Z,89.23
2018-07-11T01:47:12.471Z,88.50
2018-07-11T01:49:41.759Z,88.40
2018-07-11T01:52:22.203Z,88.49
2018-07-11T01:54:51.766Z,88.15
2018-07-11T01:57:21.139Z,88.63
2018-07-11T01:59:50.540Z,89.30
2018-07-11T02:02:19.791Z,89.57
2018-07-11T02:04:49.062Z,89.34
2018-07-11T02:07:18.267Z,89.63
2018-07-11T02:09:47.507Z,89.69
2018-07-11T02:12:16.791Z,89.34
2018-07-11T02:14:51.479Z,89.28
2018-07-11T02:17:20.732Z,87.84
2018-07-11T02:19:49.956Z,88.18
2018-07-11T02:22:19.220Z,88.19
2018-07-11T02:24:48.718Z,87.42
2018-07-11T02:27:17.998Z,86.87
2018-07-11T02:29:47.218Z,86.58
2018-07-11T02:32:16.480Z,86.26
2018-07-11T02:34:45.719Z,86.12
2018-07-11T02:37:15.075Z,85.68
2018-07-11T02:39:44.279Z,86.22
2018-07-11T02:42:13.733Z,86.22
2018-07-11T02:44:42.988Z,86.71
2018-07-11T02:47:18.340Z,86.48
2018-07-11T02:49:47.758Z,86.16
2018-07-11T02:52:17.039Z,86.31
2018-07-11T02:54:46.470Z,85.81
2018-07-11T02:57:15.700Z,86.29
2018-07-11T02:59:45.039Z,86.00
2018-07-11T03:02:14.373Z,86.35
2018-07-11T03:04:44.763Z,85.96
2018-07-11T03:07:14.031Z,85.97
2018-07-11T03:09:43.230Z,86.23
2018-07-11T03:12:12.447Z,86.38
2018-07-11T03:14:44.328Z,86.10
2018-07-11T03:17:13.551Z,86.09
2018-07-11T03:19:42.931Z,86.15
2018-07-11T03:22:12.283Z,85.44
2018-07-11T03:24:41.867Z,86.27
2018-07-11T03:27:11.137Z,86.69
2018-07-11T03:29:40.489Z,86.57
2018-07-11T03:32:11.136Z,86.87
2018-07-11T03:34:40.334Z,87.35
2018-07-11T03:37:09.576Z,87.61
2018-07-11T03:39:39.795Z,86.88
2018-07-11T03:42:09.035Z,86.92
2018-07-11T03:44:38.307Z,86.42
2018-07-11T03:47:08.074Z,86.76
2018-07-11T03:49:37.270Z,86.89
2018-07-11T03:52:06.663Z,86.43
2018-07-11T03:54:35.876Z,86.47
2018-07-11T03:57:05.603Z,86.47
2018-07-11T03:59:34.851Z,86.95
2018-07-11T04:02:04.062Z,86.13
2018-07-11T04:04:33.263Z,85.93
2018-07-11T04:07:03.227Z,85.50
2018-07-11T04:09:32.418Z,85.77
2018-07-11T04:12:01.627Z,85.35
2018-07-11T04:14:30.810Z,85.63
2018-07-11T04:17:00.286Z,85.32
2018-07-11T04:19:29.463Z,85.51
2018-07-11T04:21:58.699Z,86.29
2018-07-11T04:24:28.039Z,86.34
2018-07-11T04:26:57.311Z,85.93
2018-07-11T04:29:26.563Z,85.27
2018-07-11T04:31:55.838Z,85.39
2018-07-11T04:34:25.068Z,84.72
2018-07-11T04:36:54.335Z,85.60
2018-07-11T04:39:23.578Z,85.56
2018-07-11T04:41:53.655Z,86.10
2018-07-11T04:44:22.882Z,85.68
2018-07-11T04:46:52.150Z,85.77
2018-07-11T04:49:21.422Z,85.58
2018-07-11T04:51:51.291Z,85.90
2018-07-11T04:54:20.656Z,86.15
2018-07-11T04:56:49.915Z,84.72
2018-07-11T04:59:19.219Z,85.62
2018-07-11T05:01:48.851Z,85.32
2018-07-11T05:04:18.111Z,84.82
2018-07-11T05:06:47.343Z,85.36
2018-07-11T05:09:16.555Z,84.45
2018-07-11T05:11:45.747Z,84.81
2018-07-11T05:14:14.939Z,84.04
2018-07-11T05:16:44.279Z,83.63
2018-07-11T05:19:13.599Z,83.35
2018-07-11T05:21:42.810Z,83.46
2018-07-11T05:24:12.692Z,84.18
2018-07-11T05:26:41.874Z,84.49
2018-07-11T05:29:11.071Z,84.31
2018-07-11T05:31:40.291Z,83.90
2018-07-11T05:34:09.492Z,84.29
2018-07-11T05:36:39.175Z,83.89
2018-07-11T05:39:08.378Z,83.46
2018-07-11T05:41:37.648Z,84.04
2018-07-11T05:44:06.871Z,83.13
2018-07-11T05:46:36.070Z,82.04
2018-07-11T05:49:05.675Z,81.03
2018-07-11T05:51:35.114Z,80.74
2018-07-11T05:54:04.326Z,80.14
2018-07-11T05:56:33.507Z,79.99
2018-07-11T05:59:02.715Z,79.77
2018-07-11T06:01:32.119Z,78.68
2018-07-11T06:04:01.125Z,79.97
2018-07-11T06:06:30.320Z,80.76
2018-07-11T06:08:59.500Z,79.78
2018-07-11T06:11:28.715Z,78.50
2018-07-11T06:13:57.952Z,77.71
2018-07-11T06:16:27.214Z,78.50
2018-07-11T06:18:56.354Z,79.38
2018-07-11T06:21:26.782Z,80.56
2018-07-11T06:23:56.279Z,80.49
2018-07-11T06:26:25.485Z,80.89
2018-07-11T06:28:54.770Z,81.18
2018-07-11T06:31:23.968Z,81.58
2018-07-11T06:33:53.187Z,81.51
2018-07-11T06:36:22.359Z,81.72
2018-07-11T06:38:51.773Z,81.49
2018-07-11T06:41:20.954Z,81.69
2018-07-11T06:43:50.195Z,81.91
2018-07-11T06:46:19.804Z,82.62
2018-07-11T06:48:49.051Z,82.39
2018-07-11T06:51:18.339Z,81.80
2018-07-11T06:53:47.547Z,80.98
2018-07-11T06:56:16.724Z,81.79
2018-07-11T06:58:46.162Z,81.82
2018-07-11T07:01:15.358Z,81.95
2018-07-11T07:03:44.578Z,82.05
2018-07-11T07:06:13.790Z,82.09
2018-07-11T07:08:43.382Z,81.08
2018-07-11T07:11:12.602Z,81.50
2018-07-11T07:13:41.819Z,81.24
2018-07-11T07:16:11.199Z,81.96
2018-07-11T07:18:40.443Z,81.10
2018-07-11T07:21:09.654Z,80.85
2018-07-11T07:23:38.874Z,81.27
2018-07-11T07:26:08.043Z,81.79
2018-07-11T07:28:37.266Z,81.79
2018-07-11T07:31:06.883Z,82.07
2018-07-11T07:33:36.090Z,81.30
2018-07-11T07:36:05.303Z,81.18
2018-07-11T07:38:41.635Z,80.32
2018-07-11T07:41:11.151Z,79.19
2018-07-11T07:43:41.801Z,78.42
2018-07-11T07:46:11.047Z,76.29
2018-07-11T07:48:40.291Z,75.76
2018-07-11T07:51:09.529Z,74.21
2018-07-11T07:53:38.706Z,73.09
2018-07-11T07:56:07.959Z,75.38
2018-07-11T07:58:37.210Z,73.92
2018-07-11T08:01:06.830Z,74.21
2018-07-11T08:03:37.323Z,73.87
2018-07-11T08:06:06.652Z,72.48
2018-07-11T08:08:35.851Z,72.61
2018-07-11T08:11:05.059Z,73.20
2018-07-11T08:13:34.295Z,72.85
2018-07-11T08:16:03.486Z,73.78
2018-07-11T08:18:32.827Z,74.39
2018-07-11T08:21:02.011Z,75.69
2018-07-11T08:23:42.824Z,75.95
2018-07-11T08:26:23.522Z,76.40
2018-07-11T08:30:09.379Z,75.58
2018-07-11T08:34:48.759Z,74.12
2018-07-11T08:39:38.623Z,71.22
2018-07-11T08:42:17.880Z,51.42
2018-07-11T08:45:38.780Z,47.69
2018-07-11T08:48:31.738Z,50.79
2018-07-11T08:53:14.231Z,55.51
2018-07-11T08:55:56.454Z,63.96
2018-07-11T08:58:40.525Z,65.06
2018-07-11T09:01:24.659Z,66.06
2018-07-11T09:06:05.928Z,65.94
2018-07-11T09:09:16.855Z,57.16
2018-07-11T09:12:05.186Z,56.65
2018-07-11T09:16:48.479Z,58.64
2018-07-11T09:19:38.573Z,44.23
2018-07-11T09:24:30.018Z,45.70
2018-07-11T09:26:59.243Z,44.76
2018-07-11T09:29:28.931Z,45.08
2018-07-11T09:31:58.442Z,48.23
2018-07-11T09:34:27.915Z,53.96
2018-07-11T09:36:57.124Z,56.00
2018-07-11T09:39:26.407Z,49.86
2018-07-11T09:41:55.691Z,42.54
2018-07-11T09:44:25.087Z,44.21
2018-07-11T09:46:55.064Z,43.35
2018-07-11T09:49:25.704Z,46.97
2018-07-11T09:51:55.435Z,42.58
2018-07-11T09:54:25.003Z,35.63
2018-07-11T09:56:54.254Z,35.01
2018-07-11T09:59:23.555Z,34.65
2018-07-11T10:01:52.802Z,32.62
2018-07-11T10:04:23.983Z,33.90
2018-07-11T10:06:53.507Z,42.94
2018-07-11T10:09:23.417Z,42.61
2018-07-11T10:11:52.957Z,43.40
2018-07-11T10:14:22.591Z,44.95
2018-07-11T10:16:52.022Z,37.39
2018-07-11T10:19:21.615Z,35.96
2018-07-11T10:21:50.838Z,39.01
2018-07-11T10:24:20.594Z,38.65
2018-07-11T10:26:50.056Z,38.95
2018-07-11T10:29:19.559Z,39.72
2018-07-11T10:31:48.779Z,43.18
2018-07-11T10:34:18.008Z,45.75
2018-07-11T10:36:47.704Z,46.23
2018-07-11T10:39:16.953Z,49.50
2018-07-11T10:41:46.271Z,50.95
2018-07-11T10:44:15.782Z,45.55
2018-07-11T10:46:45.609Z,36.42
2018-07-11T10:49:14.818Z,34.88
2018-07-11T10:51:44.059Z,34.15
2018-07-11T10:54:13.320Z,36.11
2018-07-11T10:56:42.875Z,40.24
2018-07-11T10:59:12.887Z,44.53
2018-07-11T11:01:42.111Z,47.25
2018-07-11T11:04:11.322Z,47.66
2018-07-11T11:06:40.512Z,39.30
2018-07-11T11:09:09.710Z,37.65
2018-07-11T11:11:38.898Z,37.86
2018-07-11T11:14:08.164Z,32.19
2018-07-11T11:16:37.359Z,28.82
2018-07-11T11:19:06.563Z,31.44
2018-07-11T11:21:35.775Z,34.99
2018-07-11T11:24:05.002Z,38.83
2018-07-11T11:26:34.210Z,41.84
2018-07-11T11:29:03.398Z,43.00
2018-07-11T11:31:32.571Z,42.89
2018-07-11T11:34:02.114Z,45.27
2018-07-11T11:36:31.327Z,40.27
2018-07-11T11:39:00.519Z,34.62
2018-07-11T11:41:30.124Z,29.73
2018-07-11T11:43:59.900Z,27.78
2018-07-11T11:46:29.143Z,30.20
2018-07-11T11:48:58.716Z,28.62
2018-07-11T11:51:28.143Z,35.25
2018-07-11T11:53:57.568Z,37.84
2018-07-11T11:56:26.755Z,40.60
2018-07-11T11:58:55.971Z,38.43
2018-07-11T12:01:25.785Z,35.94
2018-07-11T12:03:54.997Z,31.64
2018-07-11T12:06:24.348Z,32.13
2018-07-11T12:08:53.539Z,33.09
2018-07-11T12:11:22.991Z,33.79
2018-07-11T12:13:52.186Z,30.02
2018-07-11T12:16:21.375Z,33.05
2018-07-11T12:18:50.568Z,32.72
2018-07-11T12:21:20.039Z,31.02
2018-07-11T12:23:49.226Z,33.89
2018-07-11T12:26:18.484Z,34.89
2018-07-11T12:28:47.818Z,38.40
2018-07-11T12:31:17.039Z,39.85
2018-07-11T12:33:46.269Z,42.51
2018-07-11T12:36:15.632Z,42.15
2018-07-11T12:38:45.848Z,43.81
2018-07-11T12:41:15.099Z,44.43
2018-07-11T12:43:44.775Z,47.74
2018-07-11T12:46:14.027Z,47.36
2018-07-11T12:48:48.755Z,47.35
2018-07-11T12:51:17.972Z,48.98
2018-07-11T12:53:47.202Z,50.08
2018-07-11T12:56:16.447Z,49.58
2018-07-11T12:58:45.987Z,49.72
2018-07-11T13:01:15.239Z,50.59
2018-07-11T13:03:44.486Z,50.80
2018-07-11T13:06:13.764Z,49.00
2018-07-11T13:08:42.983Z,47.80
2018-07-11T13:11:12.207Z,45.45
2018-07-11T13:13:41.867Z,45.11
2018-07-11T13:16:11.196Z,45.33
2018-07-11T13:18:40.371Z,43.61
2018-07-11T13:21:09.615Z,41.88
2018-07-11T13:23:38.799Z,38.44
2018-07-11T13:26:08.196Z,37.13
2018-07-11T13:28:37.571Z,35.33
2018-07-11T13:31:06.878Z,35.62
2018-07-11T13:33:36.181Z,33.60
2018-07-11T13:36:05.375Z,32.08
2018-07-11T13:38:34.695Z,33.33
2018-07-11T13:41:04.278Z,34.53
2018-07-11T13:43:33.612Z,35.30
2018-07-11T13:46:02.828Z,37.03
2018-07-11T13:48:32.032Z,37.68
2018-07-11T13:51:01.415Z,36.86
2018-07-11T13:53:31.223Z,36.71
2018-07-11T13:56:00.781Z,37.19
2018-07-11T13:58:30.026Z,35.20
2018-07-11T14:00:59.243Z,34.58
2018-07-11T14:03:28.450Z,35.02
2018-07-11T14:05:57.703Z,34.42
2018-07-11T14:08:26.886Z,34.76
2018-07-11T14:10:56.111Z,36.09
2018-07-11T14:13:25.315Z,34.91
2018-07-11T14:15:54.999Z,36.28
2018-07-11T14:18:24.680Z,36.50
2018-07-11T14:20:53.911Z,37.15
2018-07-11T14:23:41.006Z,38.55
2018-07-11T14:26:11.274Z,39.67
2018-07-11T14:28:46.086Z,40.85
2018-07-11T14:31:19.357Z,43.68
2018-07-11T14:33:49.767Z,45.53
2018-07-11T14:36:19.062Z,46.68
2018-07-11T14:38:48.549Z,47.44
2018-07-11T14:41:17.787Z,47.38
2018-07-11T14:43:47.799Z,47.54
2018-07-11T14:46:18.109Z,47.38
2018-07-11T14:48:47.292Z,47.34
2018-07-11T14:51:17.051Z,47.02
2018-07-11T14:53:46.216Z,46.91
2018-07-11T14:56:16.118Z,44.97
2018-07-11T14:58:45.498Z,44.64
2018-07-11T15:01:14.771Z,43.84
2018-07-11T15:03:44.019Z,43.62
2018-07-11T15:06:15.008Z,44.32
2018-07-11T15:08:44.282Z,43.73
2018-07-11T15:11:14.443Z,43.71
2018-07-11T15:13:43.888Z,43.29
2018-07-11T15:16:13.151Z,43.62
2018-07-11T15:18:42.376Z,43.42
2018-07-11T15:21:12.347Z,44.60
2018-07-11T15:23:41.909Z,45.10
2018-07-11T15:26:11.271Z,43.94
2018-07-11T15:28:40.686Z,46.14
2018-07-11T15:31:09.885Z,45.28
2018-07-11T15:33:39.306Z,45.40
2018-07-11T15:36:08.626Z,45.16
2018-07-11T15:38:38.085Z,46.28
2018-07-11T15:41:07.910Z,45.42
2018-07-11T15:43:37.631Z,45.27
2018-07-11T15:46:06.819Z,45.67
2018-07-11T15:48:36.023Z,45.02
2018-07-11T15:51:05.291Z,46.90
2018-07-11T15:53:34.803Z,46.32
2018-07-11T15:56:03.972Z,48.15
2018-07-11T15:58:36.924Z,48.16
2018-07-11T16:01:10.179Z,47.45
2018-07-11T16:03:43.367Z,47.29
2018-07-11T16:06:12.592Z,47.73
2018-07-11T16:08:50.171Z,48.05
2018-07-11T16:11:19.437Z,48.40
2018-07-11T16:13:48.971Z,49.21
2018-07-11T16:16:18.426Z,48.81
2018-07-11T16:18:48.551Z,47.65
2018-07-11T16:21:17.771Z,48.51
2018-07-11T16:23:47.044Z,48.70
2018-07-11T16:26:16.254Z,48.24
2018-07-11T16:28:45.460Z,49.17
2018-07-11T16:31:15.272Z,49.22
2018-07-11T16:33:44.811Z,48.89
2018-07-11T16:36:14.983Z,49.10
2018-07-11T16:38:44.838Z,50.20
2018-07-11T16:41:14.080Z,49.13
2018-07-11T16:43:43.892Z,49.13
2018-07-11T16:46:13.398Z,49.53
2018-07-11T16:48:42.640Z,49.55
2018-07-11T16:51:11.836Z,50.36
2018-07-11T16:53:41.147Z,50.57
2018-07-11T16:56:10.393Z,50.16
2018-07-11T16:58:45.663Z,50.27
2018-07-11T17:01:15.104Z,49.70
2018-07-11T17:03:45.615Z,50.30
2018-07-11T17:06:14.815Z,50.81
2018-07-11T17:08:53.969Z,50.75
2018-07-11T17:11:27.939Z,51.33
2018-07-11T17:13:59.904Z,51.52
2018-07-11T17:17:03.318Z,52.67
2018-07-11T17:19:39.889Z,53.93
2018-07-11T17:22:09.387Z,54.39
2018-07-11T17:24:41.121Z,52.52
2018-07-11T17:27:11.465Z,51.31
2018-07-11T17:29:41.442Z,52.76
2018-07-11T17:32:11.791Z,52.36
2018-07-11T17:34:41.173Z,53.16
2018-07-11T17:37:11.403Z,52.17
2018-07-11T17:39:51.962Z,51.71
2018-07-11T17:42:28.832Z,52.11
2018-07-11T17:45:15.383Z,52.86
2018-07-11T17:49:59.447Z,53.23
2018-07-11T17:52:29.236Z,52.14
2018-07-11T17:55:11.011Z,52.47
2018-07-11T17:57:52.695Z,53.52
2018-07-11T18:00:38.860Z,54.65
2018-07-11T18:03:17.619Z,57.17
2018-07-11T18:05:54.853Z,58.46
2018-07-11T18:08:30.355Z,59.38
2018-07-11T18:10:59.987Z,60.58
2018-07-11T18:13:32.756Z,61.11
2018-07-11T18:16:30.721Z,61.17
2018-07-11T18:19:16.222Z,62.41
2018-07-11T18:22:24.080Z,63.24
2018-07-11T18:25:18.494Z,64.54
2018-07-11T18:27:55.407Z,65.37
2018-07-11T18:30:35.476Z,65.29
2018-07-11T18:35:22.427Z,65.13
2018-07-11T18:37:56.735Z,66.11
2018-07-11T18:40:32.192Z,66.60
2018-07-11T18:43:18.859Z,66.51
2018-07-11T18:48:06.156Z,66.51
2018-07-11T18:50:45.375Z,66.97
2018-07-11T18:53:28.079Z,66.78
2018-07-11T18:56:15.735Z,66.47
2018-07-11T18:58:53.479Z,67.05
2018-07-11T19:01:30.588Z,67.42
2018-07-11T19:04:07.915Z,67.09
2018-07-11T19:06:51.116Z,67.60
2018-07-11T19:09:33.669Z,68.23
2018-07-11T19:14:14.233Z,68.22
2018-07-11T19:16:49.155Z,68.21
2018-07-11T19:19:26.587Z,68.38
2018-07-11T19:22:04.520Z,68.56
2018-07-11T19:26:45.989Z,70.82
2018-07-11T19:29:25.415Z,72.48
2018-07-11T19:32:15.237Z,71.06
2018-07-11T19:34:55.447Z,70.31
2018-07-11T19:37:33.803Z,71.55
2018-07-11T19:42:18.623Z,72.32
2018-07-11T19:44:57.367Z,71.00
2018-07-11T19:47:37.571Z,70.78
2018-07-11T19:50:21.011Z,70.48
2018-07-11T19:52:57.523Z,69.94
2018-07-11T19:59:33.508Z,73.75
2018-07-11T20:02:03.680Z,74.45
2018-07-11T20:04:33.225Z,75.98
2018-07-11T20:07:02.444Z,76.20
2018-07-11T20:09:32.809Z,77.41
2018-07-11T20:12:02.032Z,79.89
2018-07-11T20:14:31.649Z,82.24
2018-07-11T20:17:01.131Z,82.87
2018-07-11T20:19:30.401Z,82.60
2018-07-11T20:21:59.928Z,84.34
2018-07-11T20:24:29.127Z,85.67
2018-07-11T20:26:59.837Z,85.28
2018-07-11T20:29:29.759Z,86.74
2018-07-11T20:32:00.232Z,85.54
2018-07-11T20:34:29.383Z,86.17
2018-07-11T20:36:58.600Z,86.15
2018-07-11T20:39:28.216Z,86.19
2018-07-11T20:41:57.452Z,86.53
2018-07-11T20:44:26.687Z,85.73
2018-07-11T20:46:56.168Z,87.64
2018-07-11T20:49:31.667Z,87.08
2018-07-11T20:52:02.501Z,86.73
2018-07-11T20:54:32.334Z,87.23
2018-07-11T20:57:04.137Z,86.57
2018-07-11T20:59:45.003Z,86.69
2018-07-11T21:02:25.885Z,87.11
2018-07-11T21:07:08.927Z,86.51
2018-07-11T21:09:50.052Z,86.08
2018-07-11T21:13:32.395Z,86.79
2018-07-11T21:16:12.147Z,87.17
2018-07-11T21:19:07.579Z,88.11
2018-07-11T21:21:39.371Z,87.34
2018-07-11T21:24:09.572Z,86.93
2018-07-11T21:26:39.899Z,86.46
2018-07-11T21:29:09.701Z,85.93
2018-07-11T21:31:39.434Z,86.09
2018-07-11T21:34:09.069Z,86.64
2018-07-11T21:36:38.945Z,86.06
2018-07-11T21:39:08.391Z,86.70
2018-07-11T21:41:37.711Z,86.85
2018-07-11T21:44:07.267Z,86.56
2018-07-11T21:46:36.499Z,86.89
2018-07-11T21:49:05.912Z,88.20
2018-07-11T21:51:35.281Z,88.33
2018-07-11T21:54:04.956Z,88.35
2018-07-11T21:56:34.600Z,87.93
2018-07-11T21:59:05.511Z,88.42
2018-07-11T22:01:35.764Z,88.89
2018-07-11T22:04:06.095Z,89.79
2018-07-11T22:06:39.580Z,89.76
2018-07-11T22:09:10.141Z,88.95
2018-07-11T22:11:40.736Z,89.03
2018-07-11T22:14:11.249Z,89.34
2018-07-11T22:16:40.576Z,88.79
2018-07-11T22:19:11.008Z,89.50
2018-07-11T22:21:40.047Z,89.30
2018-07-11T22:24:08.820Z,89.15
2018-07-11T22:26:37.391Z,89.11
2018-07-11T22:29:06.198Z,88.92
2018-07-11T22:31:34.968Z,89.71
2018-07-11T22:34:03.232Z,89.16
2018-07-11T22:36:31.422Z,89.65
2018-07-11T22:38:59.192Z,88.43
2018-07-11T22:41:28.678Z,89.47
2018-07-11T22:43:56.699Z,89.48
2018-07-11T22:46:25.080Z,89.76
2018-07-11T22:48:53.215Z,89.85
2018-07-11T22:51:21.019Z,89.94
2018-07-11T22:53:48.965Z,89.09
2018-07-11T22:56:16.828Z,89.17
2018-07-11T22:58:44.974Z,89.54
2018-07-11T23:01:12.962Z,88.43
2018-07-11T23:03:41.519Z,89.16
2018-07-11T23:06:09.861Z,89.85
2018-07-11T23:08:37.677Z,90.00
2018-07-11T23:11:06.224Z,90.42
2018-07-11T23:13:34.475Z,90.69
2018-07-11T23:16:03.618Z,90.28
2018-07-11T23:18:31.479Z,89.59
2018-07-11T23:20:59.702Z,90.54
2018-07-11T23:23:27.633Z,90.60
2018-07-11T23:25:56.331Z,90.63
2018-07-11T23:28:24.697Z,90.70
2018-07-11T23:30:52.700Z,90.71
2018-07-11T23:33:20.568Z,90.78
2018-07-11T23:35:48.447Z,90.89
2018-07-11T23:38:16.301Z,91.03
2018-07-11T23:40:44.436Z,91.35
2018-07-11T23:43:12.596Z,90.37
2018-07-11T23:45:41.436Z,90.90
2018-07-11T23:48:09.195Z,90.64
2018-07-11T23:50:37.207Z,89.86
2018-07-11T23:53:04.999Z,90.06
2018-07-11T23:55:32.916Z,89.65
2018-07-11T23:58:00.687Z,89.30
